Time;durP1;ratioP1;P1;durP2;ratioP2;P2;SDS_P1;SDS_P2;PMS_P1;PMS_P2;Temp;Humidity;BMP_temperature;BMP_pressure;BME280_temperature;BME280_humidity;BME280_pressure;Samples;Min_cycle;Max_cycle;Signal;HPM_P1;HPM_P2
2022/09/02 00:01:26;;;;;;;2.45;1.10;;;;;;;19.75;38.00;101634.81;4954489;28;124863;-78
2022/09/02 00:04:00;;;;;;;1.55;0.90;;;;;;;19.71;38.10;101630.63;4959782;28;122868;-78
2022/09/02 00:06:30;;;;;;;4.60;1.40;;;;;;;19.68;38.48;101633.50;4954542;28;113851;-78
2022/09/02 00:08:58;;;;;;;2.38;0.93;;;;;;;19.64;38.20;101628.34;4951619;28;113894;-75
2022/09/02 00:11:29;;;;;;;2.28;1.23;;;;;;;19.60;38.27;101632.22;4954526;28;124255;-78
2022/09/02 00:13:57;;;;;;;4.40;1.30;;;;;;;19.56;38.22;101628.03;4948333;28;122773;-76
2022/09/02 00:16:25;;;;;;;2.55;1.40;;;;;;;19.54;38.50;101629.13;4949934;28;114227;-76
2022/09/02 00:18:53;;;;;;;2.00;1.13;;;;;;;19.49;38.53;101624.06;4949193;28;114911;-79
2022/09/02 00:21:20;;;;;;;1.80;1.10;;;;;;;19.47;38.52;101626.00;4957634;28;123610;-78
2022/09/02 00:23:48;;;;;;;2.95;1.08;;;;;;;19.44;38.66;101616.31;4948088;28;122397;-78
2022/09/02 00:26:15;;;;;;;1.80;1.30;;;;;;;19.42;38.54;101622.75;4946361;28;113557;-78
2022/09/02 00:28:43;;;;;;;1.75;1.10;;;;;;;19.39;38.79;101623.84;4950872;28;115470;-78
2022/09/02 00:31:24;;;;;;;2.70;1.10;;;;;;;19.37;38.78;101625.78;4947913;28;123494;-77
2022/09/02 00:33:52;;;;;;;4.57;1.10;;;;;;;19.34;38.75;101620.59;4943512;28;124359;-77
2022/09/02 00:36:19;;;;;;;1.90;1.02;;;;;;;19.32;39.00;101619.00;4945020;28;115843;-77
2022/09/02 00:38:47;;;;;;;2.40;1.30;;;;;;;19.29;38.87;101616.53;4937986;28;114103;-78
2022/09/02 00:41:14;;;;;;;3.03;1.17;;;;;;;19.26;38.90;101613.09;4964641;28;123923;-79
2022/09/02 00:43:44;;;;;;;2.80;1.15;;;;;;;19.22;39.09;101608.06;4961017;28;123166;-78
2022/09/02 00:46:13;;;;;;;3.53;1.35;;;;;;;19.17;39.15;101612.88;4965905;28;112510;-78
2022/09/02 00:48:48;;;;;;;3.33;1.40;;;;;;;19.11;39.33;101603.41;4948908;28;111817;-77
2022/09/02 00:51:15;;;;;;;2.13;1.20;;;;;;;19.06;39.07;101600.19;4954690;28;121873;-78
2022/09/02 00:53:46;;;;;;;2.78;1.20;;;;;;;19.00;39.45;101605.97;4952331;28;122998;-79
2022/09/02 00:56:20;;;;;;;2.25;1.10;;;;;;;18.95;39.67;101602.75;4944643;28;113785;-76
2022/09/02 00:58:49;;;;;;;2.90;1.10;;;;;;;18.90;39.64;101599.53;4935029;28;114522;-76
2022/09/02 01:01:17;;;;;;;4.82;1.17;;;;;;;18.87;39.60;101600.56;4933755;28;123904;-77
2022/09/02 01:03:44;;;;;;;4.30;1.10;;;;;;;18.84;39.56;101596.28;4963861;28;122132;-77
2022/09/02 01:06:14;;;;;;;2.42;1.00;;;;;;;18.82;39.55;101598.22;4945777;28;114561;-77
2022/09/02 01:08:46;;;;;;;5.00;1.20;;;;;;;18.79;39.82;101598.38;4944632;28;113273;-78
2022/09/02 01:11:15;;;;;;;1.92;1.23;;;;;;;18.77;39.89;101594.09;4945085;28;123482;-76
2022/09/02 01:13:42;;;;;;;3.13;1.27;;;;;;;18.74;39.95;101595.19;4944260;28;126276;-77
2022/09/02 01:16:23;;;;;;;2.75;1.30;;;;;;;18.72;40.01;101596.22;4940268;28;113912;-77
2022/09/02 01:18:54;;;;;;;2.00;1.20;;;;;;;18.68;40.03;101595.56;4924035;28;114096;-77
2022/09/02 01:21:22;;;;;;;2.45;1.25;;;;;;;18.63;40.08;101597.72;4945989;28;124836;-77
2022/09/02 01:23:51;;;;;;;3.05;1.40;;;;;;;18.59;40.01;101597.06;4942963;28;123681;-77
2022/09/02 01:26:18;;;;;;;2.20;1.30;;;;;;;18.57;40.12;101590.06;4937947;28;115078;-77
2022/09/02 01:28:46;;;;;;;3.08;1.27;;;;;;;18.54;40.15;101592.97;4941906;28;115001;-77
2022/09/02 01:31:14;;;;;;;2.92;1.48;;;;;;;18.49;40.19;101588.75;4960924;28;98909;-77
2022/09/02 01:33:42;;;;;;;3.70;1.30;;;;;;;18.45;40.16;101587.22;4954464;28;124056;-77
2022/09/02 01:36:11;;;;;;;3.05;1.50;;;;;;;18.41;40.28;101593.75;4936950;28;114457;-78
2022/09/02 01:38:39;;;;;;;3.38;1.40;;;;;;;18.36;40.47;101587.84;4953379;28;113839;-77
2022/09/02 01:41:06;;;;;;;2.83;1.33;;;;;;;18.30;40.48;101585.56;4942031;28;123908;-77
2022/09/02 01:43:33;;;;;;;2.72;1.48;;;;;;;18.25;40.48;101582.31;4941056;28;122487;-77
2022/09/02 01:46:00;;;;;;;3.15;1.30;;;;;;;18.23;40.69;101578.88;4935876;28;114426;-76
2022/09/02 01:48:29;;;;;;;4.78;1.50;;;;;;;18.18;40.69;101575.66;4947912;28;113275;-79
2022/09/02 01:51:00;;;;;;;4.80;1.50;;;;;;;18.15;40.83;101581.22;4948593;28;123741;-77
2022/09/02 01:53:29;;;;;;;2.20;1.35;;;;;;;18.13;40.79;101572.41;4936839;28;122698;-78
2022/09/02 01:55:57;;;;;;;3.85;1.63;;;;;;;18.07;40.80;101574.53;4968206;28;113557;-78
2022/09/02 01:58:24;;;;;;;2.03;1.30;;;;;;;18.03;40.70;101578.38;4949249;28;114485;-77
2022/09/02 02:00:51;;;;;;;3.25;1.10;;;;;;;18.00;40.87;101573.19;4947530;28;123316;-78
2022/09/02 02:03:19;;;;;;;5.75;1.30;;;;;;;17.96;41.13;101577.03;4949040;28;123039;-76
2022/09/02 02:05:47;;;;;;;2.50;1.30;;;;;;;17.92;41.11;101575.53;4945467;28;114233;-78
2022/09/02 02:08:16;;;;;;;2.78;1.20;;;;;;;17.88;41.13;101574.00;4949268;28;112391;-77
2022/09/02 02:10:45;;;;;;;2.60;1.40;;;;;;;17.85;41.17;101574.19;4928891;28;122416;-77
2022/09/02 02:13:13;;;;;;;2.53;1.48;;;;;;;17.78;41.26;101572.81;4946086;28;122188;-77
2022/09/02 02:15:43;;;;;;;1.45;1.08;;;;;;;17.74;41.42;101576.66;4942215;28;114544;-78
2022/09/02 02:18:11;;;;;;;2.72;1.67;;;;;;;17.69;41.47;101569.78;4946279;28;114112;-78
2022/09/02 02:20:38;;;;;;;2.30;1.33;;;;;;;17.67;41.42;101577.06;4950037;28;122774;-79
2022/09/02 02:23:06;;;;;;;2.67;1.30;;;;;;;17.66;41.47;101580.69;4946630;28;124037;-78
2022/09/02 02:25:33;;;;;;;3.15;1.38;;;;;;;17.65;41.59;101576.28;4948566;28;113994;-77
2022/09/02 02:28:01;;;;;;;2.17;1.30;;;;;;;17.62;41.63;101573.81;4944586;28;113935;-78
2022/09/02 02:30:30;;;;;;;1.90;1.30;;;;;;;17.60;41.49;101570.38;4946530;28;125036;-78
2022/09/02 02:32:58;;;;;;;3.22;1.20;;;;;;;17.58;41.59;101566.91;4951576;28;122884;-78
2022/09/02 02:35:25;;;;;;;3.35;1.40;;;;;;;17.56;41.73;101568.00;4948710;28;113930;-78
2022/09/02 02:37:52;;;;;;;3.63;1.52;;;;;;;17.52;41.66;101570.84;4949709;28;112254;-78
2022/09/02 02:40:22;;;;;;;2.42;1.35;;;;;;;17.48;41.75;101566.66;4940412;28;123952;-77
2022/09/02 02:42:52;;;;;;;3.38;1.30;;;;;;;17.46;41.94;101567.69;4942734;28;123936;-77
2022/09/02 02:45:22;;;;;;;2.78;1.40;;;;;;;17.43;42.14;101567.88;4939186;28;113591;-78
2022/09/02 02:47:50;;;;;;;2.67;1.50;;;;;;;17.43;41.89;101562.53;4948222;28;112126;-79
2022/09/02 02:50:21;;;;;;;2.00;1.15;;;;;;;17.43;42.07;101573.25;4949912;28;123066;-78
2022/09/02 02:52:48;;;;;;;2.33;1.52;;;;;;;17.41;42.01;101565.31;4947909;28;123015;-77
2022/09/02 02:55:18;;;;;;;1.95;1.38;;;;;;;17.40;42.14;101565.38;4946085;28;113342;-79
2022/09/02 02:57:46;;;;;;;2.58;1.25;;;;;;;17.39;42.15;101558.34;4947466;28;112503;-79
2022/09/02 03:00:19;;;;;;;2.50;1.10;;;;;;;17.37;42.21;101568.28;4951852;28;124226;-78
2022/09/02 03:02:47;;;;;;;3.67;1.08;;;;;;;17.38;42.01;101553.91;4959488;28;123530;-75
2022/09/02 03:05:18;;;;;;;2.97;1.23;;;;;;;17.36;42.02;101561.19;4957635;28;115258;-76
2022/09/02 03:07:46;;;;;;;1.45;1.05;;;;;;;17.34;42.16;101557.75;4959508;28;113446;-75
2022/09/02 03:10:18;;;;;;;4.18;1.13;;;;;;;17.34;41.99;101563.09;4946257;28;123394;-78
2022/09/02 03:12:46;;;;;;;2.28;1.15;;;;;;;17.32;42.10;101560.50;4963987;28;122304;-78
2022/09/02 03:15:18;;;;;;;5.68;1.30;;;;;;;17.30;42.33;101557.94;4927723;28;113733;-78
2022/09/02 03:17:47;;;;;;;2.40;1.30;;;;;;;17.27;42.35;101552.78;4946926;28;112121;-79
2022/09/02 03:20:16;;;;;;;1.98;1.10;;;;;;;17.25;42.44;101560.06;4924119;28;123061;-77
2022/09/02 03:22:49;;;;;;;1.85;1.17;;;;;;;17.25;42.36;101560.06;4944649;28;123424;-78
2022/09/02 03:25:19;;;;;;;2.50;1.38;;;;;;;17.24;42.50;101563.66;4946552;28;114128;-79
2022/09/02 03:27:48;;;;;;;2.05;1.30;;;;;;;17.23;42.51;101556.56;4941652;28;113619;-76
2022/09/02 03:30:23;;;;;;;2.80;1.20;;;;;;;17.23;42.66;101566.44;4928776;28;123305;-77
2022/09/02 03:32:54;;;;;;;;;;;;;;;17.19;42.07;101555.06;4941904;28;123000;-77
2022/09/02 03:35:28;;;;;;;;;;;;;;;17.16;41.59;101555.25;4958010;28;113875;-78
2022/09/02 03:37:55;;;;;;;1.85;1.25;;;;;;;17.16;42.14;101555.25;4968050;28;112876;-77
2022/09/02 03:40:26;;;;;;;1.83;1.02;;;;;;;17.12;42.39;101554.59;4943334;28;123256;-77
2022/09/02 03:42:55;;;;;;;2.95;1.30;;;;;;;17.10;42.56;101544.91;4949897;28;124221;-77
2022/09/02 03:45:27;;;;;;;2.75;1.10;;;;;;;17.07;42.46;101545.13;4926719;28;113768;-77
2022/09/02 03:47:55;;;;;;;2.00;1.20;;;;;;;17.05;42.74;101547.03;4926965;28;113471;-77
2022/09/02 03:50:31;;;;;;;1.70;1.15;;;;;;;17.06;42.89;101548.72;4940278;28;122534;-76
2022/09/02 03:52:59;;;;;;;2.10;1.20;;;;;;;17.05;43.02;101544.34;4945661;28;123402;-78
2022/09/02 03:55:28;;;;;;;2.15;1.20;;;;;;;17.04;43.07;101545.28;4956691;28;113403;-78
2022/09/02 03:57:55;;;;;;;3.90;1.30;;;;;;;17.05;43.01;101541.69;4958719;28;113556;-77
2022/09/02 04:00:28;;;;;;;2.95;1.17;;;;;;;17.06;43.17;101543.38;4942090;28;123256;-78
2022/09/02 04:03:00;;;;;;;2.00;1.35;;;;;;;17.06;43.35;101538.88;4949353;28;124205;-79
2022/09/02 04:05:28;;;;;;;2.60;1.30;;;;;;;17.05;43.38;101539.00;4941617;28;113194;-77
2022/09/02 04:07:58;;;;;;;4.13;1.30;;;;;;;17.05;43.52;101530.97;4935302;28;112930;-77
2022/09/02 04:10:26;;;;;;;2.08;1.33;;;;;;;17.05;43.48;101536.31;4944722;28;124058;-77
2022/09/02 04:12:54;;;;;;;2.05;1.10;;;;;;;17.05;43.62;101536.31;4942349;28;123976;-79
2022/09/02 04:15:21;;;;;;;1.95;1.13;;;;;;;17.05;43.53;101536.31;4957771;28;113414;-78
2022/09/02 04:17:50;;;;;;;2.47;1.40;;;;;;;17.06;43.62;101527.31;4944687;28;113326;-76
2022/09/02 04:20:19;;;;;;;2.15;1.33;;;;;;;17.06;43.79;101527.31;4945381;28;122911;-78
2022/09/02 04:22:46;;;;;;;4.07;1.40;;;;;;;17.07;43.91;101529.06;4951228;28;124432;-78
2022/09/02 04:25:15;;;;;;;3.65;1.50;;;;;;;17.08;43.82;101531.66;4943481;28;114007;-77
2022/09/02 04:27:44;;;;;;;3.45;1.33;;;;;;;17.10;44.06;101524.38;4942226;28;113194;-77
2022/09/02 04:30:15;;;;;;;3.45;1.48;;;;;;;17.12;43.95;101525.16;4941742;28;124650;-78
2022/09/02 04:32:43;;;;;;;3.28;1.40;;;;;;;17.15;43.94;101524.06;4957346;28;123467;-76
2022/09/02 04:35:11;;;;;;;1.90;1.38;;;;;;;17.15;43.96;101513.38;4942301;28;113717;-77
2022/09/02 04:37:39;;;;;;;1.83;1.63;;;;;;;17.16;44.06;101528.50;4948552;28;113661;-76
2022/09/02 04:40:07;;;;;;;3.13;1.40;;;;;;;17.17;44.14;101524.00;4956091;28;122331;-76
2022/09/02 04:42:37;;;;;;;2.42;1.40;;;;;;;17.18;44.13;101521.22;4918576;28;123204;-77
2022/09/02 04:45:05;;;;;;;4.97;1.48;;;;;;;17.19;44.30;101517.56;4939096;28;114996;-77
2022/09/02 04:47:33;;;;;;;3.10;1.58;;;;;;;17.23;44.19;101528.97;4938480;28;114126;-77
2022/09/02 04:50:01;;;;;;;3.67;1.30;;;;;;;17.24;44.21;101526.19;4945509;28;123094;-77
2022/09/02 04:52:30;;;;;;;2.35;1.67;;;;;;;17.26;44.28;101524.28;4936268;28;122345;-77
2022/09/02 04:54:59;;;;;;;2.95;1.67;;;;;;;17.29;44.12;101518.75;4952612;28;114014;-77
2022/09/02 04:57:28;;;;;;;4.90;1.70;;;;;;;17.35;44.27;101521.97;4935821;28;114257;-77
2022/09/02 04:59:55;;;;;;;2.53;1.67;;;;;;;17.37;44.35;101530.78;4938514;28;123674;-78
2022/09/02 05:02:23;;;;;;;5.25;2.03;;;;;;;17.39;44.28;101520.84;4938282;28;124000;-78
2022/09/02 05:04:51;;;;;;;3.40;2.25;;;;;;;17.41;44.23;101527.81;4941645;28;114603;-78
2022/09/02 05:07:26;;;;;;;3.22;1.80;;;;;;;17.44;44.25;101521.38;4934985;28;114422;-78
2022/09/02 05:09:58;;;;;;;5.13;1.77;;;;;;;17.48;44.17;101529.16;4945819;28;122608;-79
2022/09/02 05:12:31;;;;;;;4.10;1.98;;;;;;;17.50;44.09;101521.03;4935618;28;122532;-77
2022/09/02 05:14:59;;;;;;;3.30;2.03;;;;;;;17.52;44.21;101524.47;4947567;28;114773;-78
2022/09/02 05:17:30;;;;;;;3.33;1.98;;;;;;;17.55;44.35;101524.25;4937738;28;113790;-78
2022/09/02 05:19:58;;;;;;;3.70;1.85;;;;;;;17.56;44.25;101523.31;4938451;28;124970;-77
2022/09/02 05:22:28;;;;;;;6.07;2.05;;;;;;;17.60;44.03;101523.97;4940821;28;123738;-78
2022/09/02 05:24:57;;;;;;;5.95;1.90;;;;;;;17.63;44.23;101521.97;4917971;28;114385;-78
2022/09/02 05:27:24;;;;;;;4.00;2.00;;;;;;;17.68;44.25;101519.81;4939766;28;114400;-78
2022/09/02 05:29:55;;;;;;;5.70;2.17;;;;;;;17.73;44.15;101521.38;4939287;28;124348;-78
2022/09/02 05:32:22;;;;;;;3.15;1.80;;;;;;;17.79;44.32;101531.69;4938516;28;123842;-77
2022/09/02 05:34:51;;;;;;;4.38;1.92;;;;;;;17.82;44.12;101520.75;4932840;28;115277;-79
2022/09/02 05:37:19;;;;;;;3.97;1.90;;;;;;;17.88;44.07;101525.78;4939462;28;115695;-76
2022/09/02 05:39:48;;;;;;;4.45;1.70;;;;;;;17.92;44.17;101521.91;4922295;28;122267;-80
2022/09/02 05:42:18;;;;;;;4.60;1.92;;;;;;;17.98;44.13;101517.97;4935767;28;122706;-75
2022/09/02 05:44:47;;;;;;;2.38;1.58;;;;;;;18.04;44.10;101530.97;4944945;28;114137;-78
2022/09/02 05:47:18;;;;;;;3.35;1.50;;;;;;;18.08;43.91;101522.66;4935029;28;113662;-76
2022/09/02 05:49:45;;;;;;;3.55;1.65;;;;;;;18.13;44.12;101524.16;4937469;28;124410;-79
2022/09/02 05:52:16;;;;;;;4.40;1.80;;;;;;;18.19;44.03;101529.09;4936778;28;124476;-78
2022/09/02 05:54:48;;;;;;;5.53;1.80;;;;;;;18.24;44.03;101527.84;4937946;28;113587;-79
2022/09/02 05:57:19;;;;;;;5.05;2.08;;;;;;;18.30;44.20;101526.56;4929902;28;113593;-79
2022/09/02 05:59:57;;;;;;;4.53;1.92;;;;;;;18.37;43.99;101527.88;4954588;28;123682;-79
2022/09/02 06:02:39;;;;;;;4.00;1.98;;;;;;;18.42;44.15;101525.75;4938031;28;125088;-78
2022/09/02 06:05:10;;;;;;;3.75;1.77;;;;;;;18.49;44.04;101521.69;4942977;28;113461;-79
2022/09/02 06:07:41;;;;;;;3.47;2.03;;;;;;;18.56;43.88;101516.78;4937855;28;113709;-79
2022/09/02 06:10:08;;;;;;;4.63;1.73;;;;;;;18.64;43.93;101524.28;4935686;28;124833;-80
2022/09/02 06:12:36;;;;;;;3.95;1.77;;;;;;;18.72;43.82;101521.94;4932984;28;122342;-80
2022/09/02 06:15:09;;;;;;;6.05;1.90;;;;;;;18.77;43.68;101517.13;4934360;28;113967;-80
2022/09/02 06:17:38;;;;;;;3.00;1.65;;;;;;;18.85;43.55;101516.63;4923149;28;112560;-79
2022/09/02 06:20:06;;;;;;;4.22;1.67;;;;;;;18.91;43.43;101526.06;4936056;28;124442;-80
2022/09/02 06:22:35;;;;;;;4.72;1.90;;;;;;;18.98;43.42;101522.00;4934340;28;123027;-79
2022/09/02 06:25:03;;;;;;;3.47;1.48;;;;;;;19.03;43.47;101519.88;4937394;28;115457;-81
2022/09/02 06:27:30;;;;;;;3.95;1.50;;;;;;;19.09;43.17;101514.06;4951927;28;114523;-79
2022/09/02 06:29:59;;;;;;;4.82;1.60;;;;;;;19.15;43.31;101518.97;4931787;28;124033;-81
2022/09/02 06:32:28;;;;;;;4.72;1.55;;;;;;;19.21;43.27;101518.56;4950058;28;122080;-79
2022/09/02 06:35:01;;;;;;;5.10;1.65;;;;;;;19.30;43.03;101516.19;4920045;28;113848;-80
2022/09/02 06:37:32;;;;;;;7.25;1.63;;;;;;;19.37;42.82;101517.47;4931488;28;113092;-78
2022/09/02 06:39:59;;;;;;;5.05;1.40;;;;;;;19.44;42.95;101518.75;4944961;28;124406;-77
2022/09/02 06:42:28;;;;;;;3.38;1.50;;;;;;;19.51;42.80;101514.63;4946596;28;124488;-77
2022/09/02 06:45:15;;;;;;;4.47;1.45;;;;;;;19.59;42.86;101523.03;4938508;28;114339;-77
2022/09/02 06:47:44;;;;;;;3.05;1.50;;;;;;;19.64;42.81;101515.47;4940908;28;114113;-77
2022/09/02 06:50:12;;;;;;;2.78;1.50;;;;;;;19.72;42.67;101511.38;4935327;28;124448;-77
2022/09/02 06:52:43;;;;;;;3.20;1.48;;;;;;;19.78;42.63;101508.28;4930443;28;123856;-77
2022/09/02 06:55:13;;;;;;;4.25;1.40;;;;;;;19.86;42.43;101511.25;4947857;28;112671;-77
2022/09/02 06:57:40;;;;;;;4.97;1.50;;;;;;;19.91;42.03;101510.91;4931273;28;113501;-77
2022/09/02 07:00:11;;;;;;;5.05;1.42;;;;;;;19.98;42.27;101506.78;4935448;28;123410;-75
2022/09/02 07:02:40;;;;;;;4.50;1.33;;;;;;;20.07;42.05;101505.25;4932852;28;123024;-78
2022/09/02 07:05:08;;;;;;;2.45;1.20;;;;;;;20.15;42.08;101502.84;4949904;28;115393;-76
2022/09/02 07:07:39;;;;;;;2.30;1.20;;;;;;;20.23;41.95;101505.84;4916806;28;113324;-78
2022/09/02 07:10:12;;;;;;;3.45;1.55;;;;;;;20.34;42.05;101497.81;4936441;28;123788;-79
2022/09/02 07:12:40;;;;;;;4.18;1.55;;;;;;;20.45;42.06;101496.13;4934807;28;123370;-78
2022/09/02 07:15:14;;;;;;;2.50;1.40;;;;;;;20.53;41.88;101486.50;4932826;28;114517;-78
2022/09/02 07:17:42;;;;;;;2.45;1.50;;;;;;;20.65;42.05;101487.41;4938699;28;115042;-78
2022/09/02 07:20:17;;;;;;;9.40;1.95;;;;;;;20.77;41.92;101485.59;4933515;28;123441;-77
2022/09/02 07:22:55;;;;;;;4.10;1.45;;;;;;;20.92;41.87;101491.59;4938184;28;122597;-76
2022/09/02 07:25:24;;;;;;;2.85;1.60;;;;;;;21.04;41.76;101490.66;4933505;28;113814;-78
2022/09/02 07:27:53;;;;;;;6.70;1.42;;;;;;;21.15;41.38;101487.97;4948160;28;112569;-78
2022/09/02 07:30:21;;;;;;;3.33;1.50;;;;;;;21.27;41.39;101491.50;4935917;28;123570;-76
2022/09/02 07:32:56;;;;;;;3.53;1.33;;;;;;;21.38;41.32;101498.75;4933749;28;124116;-77
2022/09/02 07:35:25;;;;;;;3.58;1.50;;;;;;;21.50;41.11;101486.97;4957966;28;114767;-77
2022/09/02 07:37:53;;;;;;;4.05;1.60;;;;;;;21.63;41.12;101491.38;4957200;28;113897;-78
2022/09/02 07:40:22;;;;;;;3.90;1.50;;;;;;;21.73;41.11;101487.78;4939151;28;123640;-77
2022/09/02 07:42:50;;;;;;;3.33;1.60;;;;;;;21.85;40.76;101485.94;4934289;28;123280;-78
2022/09/02 07:45:20;;;;;;;8.82;1.60;;;;;;;21.97;40.72;101479.53;4951625;28;113883;-77
2022/09/02 07:47:48;;;;;;;2.28;1.42;;;;;;;22.08;40.63;101483.19;4947689;28;113506;-78
2022/09/02 07:50:15;;;;;;;3.78;1.40;;;;;;;22.19;40.44;101483.13;4916072;28;123262;-78
2022/09/02 07:52:55;;;;;;;3.08;1.55;;;;;;;22.35;40.43;101488.97;4933711;28;124560;-77
2022/09/02 07:55:23;;;;;;;3.42;1.30;;;;;;;22.51;40.35;101477.72;4951995;28;114071;-78
2022/09/02 07:57:53;;;;;;;5.00;1.67;;;;;;;22.68;40.05;101473.56;4936772;28;113776;-78
2022/09/02 08:00:26;;;;;;;3.42;1.40;;;;;;;22.83;39.77;101481.31;4935379;28;125090;-79
2022/09/02 08:03:01;;;;;;;4.05;1.55;;;;;;;22.96;39.81;101471.16;4950123;28;122930;-78
2022/09/02 08:05:35;;;;;;;6.15;1.80;;;;;;;23.08;39.69;101477.38;4944019;28;115131;-78
2022/09/02 08:08:03;;;;;;;3.08;1.60;;;;;;;23.18;39.63;101474.72;4947110;28;115559;-78
2022/09/02 08:10:31;;;;;;;2.97;1.70;;;;;;;23.31;39.47;101478.03;4950164;28;123858;-78
2022/09/02 08:12:59;;;;;;;4.88;1.77;;;;;;;23.42;39.37;101472.50;4949046;28;122966;-80
2022/09/02 08:15:28;;;;;;;3.38;1.60;;;;;;;23.57;39.48;101475.69;4951393;28;113656;-78
2022/09/02 08:17:57;;;;;;;3.15;1.85;;;;;;;23.70;38.85;101476.28;4945375;28;112025;-79
2022/09/02 08:20:24;;;;;;;4.60;1.70;;;;;;;23.83;38.51;101465.25;4944974;28;123855;-79
2022/09/02 08:22:51;;;;;;;5.50;1.52;;;;;;;23.96;38.17;101469.50;4952437;28;123838;-79
2022/09/02 08:25:36;;;;;;;;;;;;;;;24.05;38.54;101468.66;4942672;28;114705;-79
2022/09/02 08:28:03;;;;;;;4.80;1.52;;;;;;;24.20;38.38;101467.22;4952410;28;113587;-83
2022/09/02 08:30:32;;;;;;;4.70;1.50;;;;;;;24.36;37.97;101465.81;4949493;28;123564;-79
2022/09/02 08:32:59;;;;;;;2.72;1.35;;;;;;;24.51;38.09;101458.97;4946687;28;123997;-81
2022/09/02 08:35:26;;;;;;;4.45;1.50;;;;;;;24.65;37.58;101461.22;4948352;28;114822;-79
2022/09/02 08:37:53;;;;;;;7.75;2.00;;;;;;;24.78;37.46;101465.47;4961674;28;113868;-79
2022/09/02 08:40:23;;;;;;;3.70;1.90;;;;;;;24.88;37.07;101460.88;4951610;28;123051;-79
2022/09/02 08:42:53;;;;;;;3.33;1.50;;;;;;;24.96;36.93;101458.28;4957510;28;124384;-78
2022/09/02 08:45:29;;;;;;;4.30;1.60;;;;;;;25.08;36.54;101455.41;4950758;28;114285;-79
2022/09/02 08:48:33;;;;;;;3.40;1.60;;;;;;;25.18;36.52;101456.19;4948589;28;113680;-78
2022/09/02 08:51:06;;;;;;;5.88;1.80;;;;;;;25.29;36.29;101447.91;4947124;28;122202;-78
2022/09/02 08:53:56;;;;;;;3.08;1.63;;;;;;;25.39;35.96;101448.72;4940228;28;123743;-78
2022/09/02 08:56:26;;;;;;;5.22;1.80;;;;;;;25.48;35.93;101446.94;4938297;28;115297;-79
2022/09/02 08:58:57;;;;;;;2.90;1.88;;;;;;;25.56;35.47;101444.34;4939396;28;115284;-81
2022/09/02 09:01:50;;;;;;;3.92;1.70;;;;;;;25.62;35.78;101442.88;4934369;28;123692;-79
2022/09/02 09:04:23;;;;;;;7.00;1.90;;;;;;;25.67;35.49;101443.25;4931733;28;122941;-78
2022/09/02 09:07:22;;;;;;;4.22;1.88;;;;;;;25.75;35.31;101454.19;4942774;28;114205;-79
2022/09/02 09:10:12;;;;;;;3.88;1.60;;;;;;;25.87;35.40;101448.53;4942248;28;113449;-78
2022/09/02 09:12:50;;;;;;;3.78;2.03;;;;;;;25.95;35.71;101456.78;4930750;28;123974;-78
2022/09/02 09:16:05;;;;;;;6.03;2.38;;;;;;;26.06;35.25;101451.13;4941733;28;123913;-78
2022/09/02 09:18:45;;;;;;;5.35;1.83;;;;;;;26.18;35.17;101452.59;4918627;28;114468;-78
2022/09/02 09:21:16;;;;;;;3.78;2.17;;;;;;;26.30;35.07;101455.91;4938405;28;113140;-79
2022/09/02 09:23:45;;;;;;;4.72;1.90;;;;;;;26.39;34.63;101448.66;4940441;28;123645;-79
2022/09/02 09:26:17;;;;;;;7.78;2.20;;;;;;;26.44;34.51;101449.06;4944338;28;122665;-79
2022/09/02 09:28:47;;;;;;;6.70;2.00;;;;;;;26.53;34.91;101441.81;4937440;28;113393;-79
2022/09/02 09:31:20;;;;;;;5.85;1.90;;;;;;;26.61;34.48;101445.47;4933139;28;112872;-79
2022/09/02 09:34:05;;;;;;;6.03;2.13;;;;;;;26.73;34.82;101442.47;4936642;28;122749;-80
2022/09/02 09:36:50;;;;;;;5.82;1.83;;;;;;;26.89;34.55;101437.16;4937717;28;124201;-79
2022/09/02 09:39:31;;;;;;;5.38;1.83;;;;;;;27.00;34.54;101439.59;4950351;28;113992;-78
2022/09/02 09:42:12;;;;;;;4.72;1.88;;;;;;;27.09;34.36;101434.19;4944786;28;112840;-78
2022/09/02 09:44:48;;;;;;;6.10;1.65;;;;;;;27.19;34.27;101433.03;4944062;28;124153;-79
2022/09/02 09:47:18;;;;;;;7.50;2.10;;;;;;;27.27;33.89;101440.41;4926764;28;123314;-80
2022/09/02 09:49:50;;;;;;;3.08;1.67;;;;;;;27.35;33.90;101432.28;4948332;28;114630;-79
2022/09/02 09:52:36;;;;;;;5.82;2.05;;;;;;;27.42;33.81;101431.63;4951233;28;113899;-79
2022/09/02 09:55:11;;;;;;;5.40;1.80;;;;;;;27.47;33.54;101429.25;4949355;28;123792;-80
2022/09/02 09:57:44;;;;;;;5.22;2.03;;;;;;;27.54;33.28;101427.59;4951394;28;125164;-78
2022/09/02 10:00:20;;;;;;;6.07;2.20;;;;;;;27.63;33.39;101429.28;4938859;28;115989;-79
2022/09/02 10:02:50;;;;;;;5.50;1.90;;;;;;;27.68;33.39;101426.06;4949434;28;113915;-80
2022/09/02 10:05:35;;;;;;;4.60;1.73;;;;;;;27.68;33.26;101416.03;4952559;28;124549;-79
2022/09/02 10:08:20;;;;;;;5.10;1.90;;;;;;;27.71;33.37;101415.72;4959563;28;123109;-80
2022/09/02 10:11:02;;;;;;;5.15;1.83;;;;;;;27.75;33.13;101410.78;4969194;28;113301;-78
2022/09/02 10:13:32;;;;;;;7.55;1.90;;;;;;;27.77;33.10;101409.59;4964570;28;114568;-79
2022/09/02 10:16:31;;;;;;;5.30;1.90;;;;;;;27.83;32.83;101408.06;4943027;28;123193;-78
2022/09/02 10:19:06;;;;;;;5.18;2.10;;;;;;;27.88;32.90;101413.00;4962217;28;123805;-80
2022/09/02 10:21:51;;;;;;;;;;;;;;;27.91;33.42;101410.81;4955855;28;115216;-79
2022/09/02 10:24:36;;;;;;;5.17;1.90;;;;;;;28.06;33.06;101401.97;4949618;28;114003;-79
2022/09/02 10:27:07;;;;;;;;;;;;;;;28.12;33.64;101396.72;4937544;28;123539;-79
2022/09/02 10:29:49;;;;;;;2.08;1.55;;;;;;;28.22;32.67;101390.19;4947946;28;124767;-79
2022/09/02 10:32:28;;;;;;;3.50;1.80;;;;;;;28.31;32.53;101392.78;4941405;28;113594;-81
2022/09/02 10:35:00;;;;;;;3.13;1.80;;;;;;;28.38;31.88;101395.63;4947145;28;113742;-78
2022/09/02 10:37:40;;;;;;;5.20;1.80;;;;;;;28.42;31.73;101386.09;4952713;28;123354;-78
2022/09/02 10:40:26;;;;;;;2.55;1.70;;;;;;;28.48;32.17;101379.09;4948579;28;123894;-78
2022/09/02 10:43:08;;;;;;;3.58;1.65;;;;;;;28.54;31.98;101373.84;4948504;28;114527;-80
2022/09/02 10:45:42;;;;;;;2.47;1.83;;;;;;;28.64;31.84;101378.25;4946044;28;113837;-80
2022/09/02 10:48:15;;;;;;;5.13;2.00;;;;;;;28.74;31.72;101367.97;4940795;28;124869;-79
2022/09/02 10:50:52;;;;;;;5.20;1.55;;;;;;;28.82;31.20;101370.69;4939222;28;122749;-79
2022/09/02 10:53:36;;;;;;;4.95;1.67;;;;;;;28.86;31.29;101380.22;4939781;28;114034;-78
2022/09/02 10:56:20;;;;;;;4.00;1.60;;;;;;;28.95;31.41;101374.72;4951289;28;113376;-78
2022/09/02 10:58:56;;;;;;;4.15;1.35;;;;;;;29.05;31.20;101369.91;4945929;28;125111;-79
2022/09/02 11:01:27;;;;;;;2.58;1.70;;;;;;;29.17;30.95;101368.50;4918123;28;123241;-79
2022/09/02 11:04:03;;;;;;;3.03;1.50;;;;;;;29.27;30.51;101363.69;4947560;28;113936;-78
2022/09/02 11:06:38;;;;;;;2.83;1.70;;;;;;;29.39;30.71;101368.75;4937113;28;113827;-77
2022/09/02 11:09:31;;;;;;;4.30;1.92;;;;;;;29.55;30.44;101365.88;4947371;28;124100;-78
2022/09/02 11:12:20;;;;;;;3.22;1.60;;;;;;;29.63;29.96;101357.66;4945287;28;124080;-78
2022/09/02 11:15:06;;;;;;;2.60;1.42;;;;;;;29.68;29.70;101360.66;4944342;28;114422;-78
2022/09/02 11:17:40;;;;;;;2.78;1.40;;;;;;;29.73;29.19;101356.56;4958212;28;113106;-80
2022/09/02 11:20:31;;;;;;;2.88;1.52;;;;;;;29.77;29.24;101347.00;4938612;28;123886;-79
2022/09/02 11:23:19;;;;;;;6.05;1.52;;;;;;;29.87;29.24;101353.03;4937159;28;123014;-78
2022/09/02 11:25:54;;;;;;;1.77;1.30;;;;;;;29.96;28.71;101341.00;4935128;28;113685;-78
2022/09/02 11:28:34;;;;;;;3.15;1.50;;;;;;;30.01;28.23;101338.56;4936865;28;113526;-84
2022/09/02 11:31:11;;;;;;;2.30;1.58;;;;;;;30.05;28.01;101342.63;4940142;28;123006;-84
2022/09/02 11:33:57;;;;;;;1.95;1.35;;;;;;;30.09;27.72;101335.75;4937125;28;123537;-78
2022/09/02 11:36:25;;;;;;;3.22;1.38;;;;;;;30.15;27.70;101333.31;4948724;28;114409;-83
2022/09/02 11:39:05;;;;;;;2.08;1.45;;;;;;;30.18;27.58;101339.25;4935567;28;114054;-79
2022/09/02 11:41:48;;;;;;;2.25;1.40;;;;;;;30.25;27.74;101333.88;4948559;28;124826;-79